Time;durP1;ratioP1;P1;durP2;ratioP2;P2;SDS_P1;SDS_P2;PMS_P1;PMS_P2;Temp;Humidity;BMP_temperature;BMP_pressure;BME280_temperature;BME280_humidity;BME280_pressure;Samples;Min_cycle;Max_cycle;Signal;HPM_P1;HPM_P2
2021/01/11 00:01:04;;;;;;;13.10;9.13;;;;;;;0.82;65.91;100018.88;1778234;79;21135;-36
2021/01/11 00:03:32;;;;;;;13.20;8.80;;;;;;;0.85;65.60;100010.34;1781185;79;21192;-36
2021/01/11 00:06:01;;;;;;;11.65;8.85;;;;;;;0.83;65.54;100005.80;1778668;79;21116;-36
2021/01/11 00:08:30;;;;;;;10.28;7.45;;;;;;;0.82;65.54;100003.44;1778558;79;21450;-36
2021/01/11 00:10:59;;;;;;;10.38;8.08;;;;;;;0.78;65.41;100011.71;1776648;79;21637;-36
2021/01/11 00:13:27;;;;;;;11.95;8.65;;;;;;;0.64;65.80;100014.22;1779237;79;21170;-36
2021/01/11 00:15:55;;;;;;;11.57;8.58;;;;;;;0.47;66.43;100023.69;1777821;79;21179;-36
2021/01/11 00:18:23;;;;;;;12.13;8.33;;;;;;;0.40;66.84;100014.11;1776205;79;21141;-36
2021/01/11 00:20:52;;;;;;;12.70;9.20;;;;;;;0.39;67.10;100013.05;1774612;79;21421;-36
2021/01/11 00:23:20;;;;;;;13.28;9.30;;;;;;;0.48;67.11;100015.95;1781782;79;21932;-36
2021/01/11 00:25:48;;;;;;;13.40;9.40;;;;;;;0.51;67.19;100016.19;1769995;79;20989;-36
2021/01/11 00:28:18;;;;;;;13.75;9.73;;;;;;;0.54;67.34;100021.49;1779372;79;21170;-36
2021/01/11 00:30:46;;;;;;;13.00;9.53;;;;;;;0.54;67.52;100020.16;1779673;79;21210;-36
2021/01/11 00:33:14;;;;;;;12.55;9.93;;;;;;;0.51;67.80;100026.05;1778709;79;21643;-36
2021/01/11 00:35:42;;;;;;;12.95;9.38;;;;;;;0.50;67.71;100027.13;1780663;79;21531;-36
2021/01/11 00:38:11;;;;;;;12.13;9.48;;;;;;;0.55;67.83;100025.77;1779866;79;21121;-36
2021/01/11 00:40:40;;;;;;;12.58;9.58;;;;;;;0.62;67.84;100023.59;1773027;79;21194;-36
2021/01/11 00:43:10;;;;;;;12.75;9.43;;;;;;;0.69;67.72;100017.39;1780811;79;21176;-37
2021/01/11 00:45:39;;;;;;;13.13;9.23;;;;;;;0.78;67.78;100021.05;1780472;79;22078;-36
2021/01/11 00:48:08;;;;;;;12.95;9.63;;;;;;;0.83;67.72;100019.68;1776063;79;21626;-36
2021/01/11 00:50:36;;;;;;;13.85;9.93;;;;;;;0.90;67.46;100021.51;1774482;79;21629;-36
2021/01/11 00:53:05;;;;;;;12.00;9.33;;;;;;;0.94;67.46;100021.20;1779137;79;21147;-36
2021/01/11 00:55:35;;;;;;;14.40;9.78;;;;;;;0.95;67.55;100029.48;1778975;79;21184;-36
2021/01/11 00:58:06;;;;;;;11.43;8.90;;;;;;;1.01;67.56;100028.36;1776978;79;22229;-37
2021/01/11 01:00:36;;;;;;;14.70;10.30;;;;;;;1.06;67.53;100032.33;1776869;79;21162;-36
2021/01/11 01:03:12;;;;;;;11.22;8.83;;;;;;;1.13;67.39;100038.66;1772722;79;21190;-36
2021/01/11 01:05:40;;;;;;;12.78;9.58;;;;;;;1.16;67.28;100040.79;1775248;79;21179;-36
2021/01/11 01:08:09;;;;;;;13.95;9.23;;;;;;;1.22;67.17;100044.45;1778011;79;21166;-37
2021/01/11 01:10:38;;;;;;;14.07;9.30;;;;;;;1.25;67.02;100041.77;1775225;79;21278;-37
2021/01/11 01:13:06;;;;;;;12.10;9.40;;;;;;;1.24;67.07;100040.17;1777394;79;21290;-37
2021/01/11 01:15:35;;;;;;;12.20;9.15;;;;;;;1.30;67.05;100035.05;1776771;79;21147;-36
2021/01/11 01:18:05;;;;;;;12.98;9.60;;;;;;;1.35;66.99;100034.20;1780462;79;21580;-36
2021/01/11 01:20:36;;;;;;;14.85;9.25;;;;;;;1.40;66.95;100028.81;1778968;79;21128;-36
2021/01/11 01:23:05;;;;;;;13.90;9.83;;;;;;;1.39;66.88;100027.22;1778829;79;22139;-37
2021/01/11 01:25:35;;;;;;;;;;;;;;;1.37;66.99;100029.36;1779283;78;21160;-36
2021/01/11 01:28:04;;;;;;;12.20;9.00;;;;;;;1.40;66.92;100034.16;1780915;79;20296;-37
2021/01/11 01:30:32;;;;;;;13.08;9.40;;;;;;;1.31;67.14;100037.42;1774725;79;21627;-36
2021/01/11 01:33:01;;;;;;;12.07;8.75;;;;;;;1.36;67.08;100035.77;1779135;79;21147;-36
2021/01/11 01:35:32;;;;;;;14.23;10.20;;;;;;;1.01;67.20;99978.97;1715909;82;21399;-36
2021/01/11 01:38:00;;;;;;;13.62;9.65;;;;;;;1.43;67.19;100045.06;1720276;82;21219;-37
2021/01/11 01:40:28;;;;;;;15.05;10.50;;;;;;;1.44;67.18;100043.20;1720479;82;21217;-36
2021/01/11 01:42:57;;;;;;;14.68;10.20;;;;;;;1.43;67.24;100036.25;1775640;79;21143;-36
2021/01/11 01:45:25;;;;;;;13.35;9.80;;;;;;;1.47;67.14;100039.95;1780723;79;21113;-36
2021/01/11 01:47:54;;;;;;;14.00;10.32;;;;;;;1.49;67.10;100037.27;1775801;79;22124;-37
2021/01/11 01:50:22;;;;;;;15.70;10.70;;;;;;;1.53;66.95;100042.84;1777737;79;21138;-36
2021/01/11 01:52:50;;;;;;;14.87;10.53;;;;;;;1.55;66.94;100049.47;1766696;79;21145;-36
2021/01/11 01:55:20;;;;;;;15.25;9.13;;;;;;;1.60;66.84;100043.28;1753636;79;21183;-37
2021/01/11 01:57:48;;;;;;;18.70;12.55;;;;;;;1.61;66.82;100036.33;1779879;79;21184;-36
2021/01/11 02:02:06;;;;;;;17.62;12.30;;;;;;;1.66;66.78;100027.45;1807957;78;22738;-36
2021/01/11 02:04:35;;;;;;;18.52;12.45;;;;;;;1.56;66.85;100040.92;1734870;79;21605;-35
2021/01/11 02:07:11;;;;;;;19.15;12.53;;;;;;;1.61;66.82;100044.88;1781075;79;21188;-35
2021/01/11 02:09:48;;;;;;;18.95;13.10;;;;;;;1.64;66.69;100040.33;1780650;79;21576;-35
2021/01/11 02:12:18;;;;;;;19.45;12.82;;;;;;;1.65;66.62;100037.34;1783225;77;21016;-35
2021/01/11 02:15:04;;;;;;;20.70;12.78;;;;;;;1.63;66.50;100032.05;1782947;79;21043;-35
2021/01/11 02:17:37;;;;;;;18.30;12.63;;;;;;;1.62;66.51;100029.91;1779394;79;21609;-35
2021/01/11 02:20:28;;;;;;;20.55;12.28;;;;;;;1.59;66.62;100031.82;1793196;77;21541;-35
2021/01/11 02:23:19;;;;;;;19.92;12.35;;;;;;;1.58;66.69;100028.09;1770983;79;21596;-36
2021/01/11 02:26:40;;;;;;;17.30;11.12;;;;;;;1.51;66.72;100015.05;1784319;79;21043;-36
2021/01/11 02:29:53;;;;;;;16.23;10.58;;;;;;;1.44;66.87;100006.59;1783665;79;21190;-36
2021/01/11 02:32:22;;;;;;;15.68;10.00;;;;;;;1.33;67.11;100008.30;1783606;79;21150;-35
2021/01/11 02:34:50;;;;;;;14.98;10.68;;;;;;;1.20;67.39;100005.77;1785838;79;21429;-35
2021/01/11 02:37:20;;;;;;;;;;;;;;;1.07;67.62;100005.86;1786831;79;21035;-35
2021/01/11 02:39:48;;;;;;;15.58;9.90;;;;;;;1.02;67.78;100005.11;1779831;79;20299;-35
2021/01/11 02:42:16;;;;;;;13.40;9.35;;;;;;;0.87;68.24;99995.39;1734257;79;21150;-35
2021/01/11 02:44:47;;;;;;;14.70;9.65;;;;;;;0.90;68.43;99994.81;1782318;79;21216;-35
2021/01/11 02:47:17;;;;;;;;;;;;;;;0.93;68.41;100001.45;1783857;79;21355;-36
2021/01/11 02:49:50;;;;;;;13.53;9.55;;;;;;;0.87;68.52;100003.39;1777166;79;20223;-35
2021/01/11 02:52:26;;;;;;;14.20;9.05;;;;;;;0.83;68.68;100001.00;1782370;79;21130;-35
2021/01/11 02:55:05;;;;;;;15.15;10.10;;;;;;;0.89;68.58;99991.88;1785308;79;21166;-36
2021/01/11 02:58:04;;;;;;;14.70;9.83;;;;;;;0.98;68.47;99978.72;1783013;79;21099;-36
2021/01/11 03:00:35;;;;;;;11.97;8.67;;;;;;;1.06;68.53;99967.45;1783180;79;21202;-35
2021/01/11 03:03:08;;;;;;;14.35;9.38;;;;;;;1.06;68.29;99961.58;1791104;79;22193;-35
2021/01/11 03:05:38;;;;;;;11.18;8.68;;;;;;;1.08;68.39;99964.74;1786642;79;21150;-35
2021/01/11 03:08:07;;;;;;;15.98;9.45;;;;;;;1.09;68.48;99969.01;1772535;79;21177;-35
2021/01/11 03:10:35;;;;;;;12.53;8.90;;;;;;;1.17;68.27;99981.73;1786123;79;21083;-36
2021/01/11 03:13:04;;;;;;;12.80;9.28;;;;;;;1.26;68.06;99984.05;1790994;79;23511;-36
2021/01/11 03:15:32;;;;;;;15.90;9.53;;;;;;;1.36;67.86;99987.69;1788892;79;21183;-35
2021/01/11 03:18:01;;;;;;;14.68;9.78;;;;;;;1.40;67.67;99989.55;1787107;79;21079;-36
2021/01/11 03:20:30;;;;;;;15.40;10.23;;;;;;;1.42;67.56;99998.59;1797527;79;21106;-35
2021/01/11 03:22:58;;;;;;;13.78;10.15;;;;;;;1.47;67.42;100006.55;1779348;79;21186;-35
2021/01/11 03:25:27;;;;;;;12.90;9.00;;;;;;;1.51;67.01;100004.91;1795263;79;21280;-35
2021/01/11 03:27:55;;;;;;;12.95;8.88;;;;;;;1.50;66.98;100016.13;1795446;79;21162;-35
2021/01/11 03:30:24;;;;;;;11.65;8.25;;;;;;;1.48;67.06;100010.83;1794830;79;21095;-36
2021/01/11 03:32:52;;;;;;;11.35;8.45;;;;;;;1.48;66.83;100018.30;1793597;79;21170;-35
2021/01/11 03:35:20;;;;;;;12.78;9.45;;;;;;;1.44;66.68;100018.62;1782152;80;21023;-35
2021/01/11 03:37:49;;;;;;;12.58;9.00;;;;;;;1.39;66.72;100023.20;1791625;79;21314;-35
2021/01/11 03:40:18;;;;;;;11.93;8.88;;;;;;;1.36;66.98;100015.73;1782042;79;21118;-35
2021/01/11 03:42:46;;;;;;;13.38;9.65;;;;;;;1.42;66.81;100016.75;1794789;79;21380;-35
2021/01/11 03:45:14;;;;;;;11.90;9.20;;;;;;;1.45;66.91;100016.74;1790687;79;21039;-36
2021/01/11 03:47:43;;;;;;;13.48;9.38;;;;;;;1.44;67.00;100019.95;1790009;79;21637;-35
2021/01/11 03:50:13;;;;;;;9.80;6.85;;;;;;;1.46;66.96;100015.10;1782760;79;21191;-35
2021/01/11 03:52:41;;;;;;;14.07;9.80;;;;;;;1.52;66.79;100019.86;1793364;79;21569;-35
2021/01/11 03:55:09;;;;;;;12.25;8.78;;;;;;;1.54;66.82;100025.19;1786091;79;20972;-36
2021/01/11 03:57:38;;;;;;;12.28;8.95;;;;;;;1.56;66.75;100020.88;1783546;79;21035;-35
2021/01/11 04:00:08;;;;;;;13.50;9.13;;;;;;;1.59;66.63;100023.00;1783518;79;21146;-35
2021/01/11 04:02:36;;;;;;;13.22;9.05;;;;;;;1.60;66.79;100026.70;1783111;79;21190;-36
2021/01/11 04:05:06;;;;;;;12.03;9.23;;;;;;;1.57;66.89;100023.81;1781950;79;21137;-35
2021/01/11 04:07:35;;;;;;;12.20;9.25;;;;;;;1.62;66.84;100029.11;1792785;78;21139;-35
2021/01/11 04:10:05;;;;;;;13.03;9.53;;;;;;;1.64;66.62;100029.63;1781967;79;20996;-35
2021/01/11 04:12:34;;;;;;;13.72;9.18;;;;;;;1.67;66.52;100035.73;1785498;79;21150;-36
2021/01/11 04:15:03;;;;;;;14.07;9.95;;;;;;;1.64;66.58;100038.45;1785497;79;21274;-35
2021/01/11 04:17:31;;;;;;;9.60;6.60;;;;;;;1.63;66.68;100042.20;1793675;79;21118;-35
2021/01/11 04:20:00;;;;;;;12.50;9.20;;;;;;;1.63;66.90;100042.20;1782505;79;22145;-35
2021/01/11 04:22:28;;;;;;;15.08;9.98;;;;;;;1.63;67.03;100042.20;1782812;79;21166;-36
2021/01/11 04:24:57;;;;;;;13.10;9.43;;;;;;;1.68;67.04;100043.48;1782915;79;21142;-35
2021/01/11 04:27:26;;;;;;;13.83;9.95;;;;;;;1.70;67.02;100044.52;1794205;79;21274;-35
2021/01/11 04:29:54;;;;;;;13.93;9.78;;;;;;;1.72;66.99;100043.70;1813931;79;21043;-35
2021/01/11 04:32:22;;;;;;;13.28;9.40;;;;;;;1.67;67.07;100038.41;1801765;78;21126;-35
2021/01/11 04:34:50;;;;;;;15.48;10.25;;;;;;;1.64;67.21;100029.63;1788118;79;21166;-35
2021/01/11 04:37:19;;;;;;;11.97;9.58;;;;;;;1.66;67.19;100031.47;1804248;79;21593;-35
2021/01/11 04:39:47;;;;;;;13.70;9.63;;;;;;;1.63;67.14;100027.50;1783234;79;21159;-35
2021/01/11 04:42:17;;;;;;;13.05;9.65;;;;;;;1.57;67.23;100030.50;1783548;79;20980;-35
2021/01/11 04:44:45;;;;;;;12.45;9.90;;;;;;;1.54;67.17;100030.54;1789337;79;20980;-36
2021/01/11 04:47:13;;;;;;;13.98;9.53;;;;;;;1.55;67.17;100030.77;1793338;79;21123;-36
2021/01/11 04:49:41;;;;;;;14.98;10.48;;;;;;;1.55;67.21;100029.44;1780363;79;21546;-35
2021/01/11 04:52:10;;;;;;;16.05;11.00;;;;;;;1.53;67.31;100030.27;1788723;79;21372;-36
2021/01/11 04:54:38;;;;;;;12.45;9.13;;;;;;;1.56;67.24;100030.23;1782100;79;21620;-35
2021/01/11 04:57:07;;;;;;;11.48;8.20;;;;;;;1.55;67.20;100028.66;1785973;79;21150;-36
2021/01/11 04:59:35;;;;;;;14.10;10.08;;;;;;;1.55;67.23;100022.75;1783560;79;21103;-35
2021/01/11 05:02:04;;;;;;;15.80;11.12;;;;;;;1.56;67.12;100031.03;1799162;79;21087;-35
2021/01/11 05:04:33;;;;;;;14.83;10.68;;;;;;;1.59;66.89;100027.02;1779270;79;21354;-35
2021/01/11 05:07:02;;;;;;;14.60;10.55;;;;;;;1.58;66.95;100023.55;1792031;79;21213;-35
2021/01/11 05:09:30;;;;;;;16.57;10.08;;;;;;;1.63;66.79;100025.36;1776481;80;21145;-35
2021/01/11 05:11:59;;;;;;;15.03;10.72;;;;;;;1.57;66.66;100026.48;1780286;79;21177;-35
2021/01/11 05:14:27;;;;;;;16.37;10.75;;;;;;;1.51;66.88;100028.95;1776548;79;21170;-36
2021/01/11 05:17:04;;;;;;;15.18;11.15;;;;;;;1.54;66.75;100027.06;1791169;79;21190;-35
2021/01/11 05:19:32;;;;;;;15.00;10.78;;;;;;;1.57;66.85;100024.62;1778195;79;21581;-36
2021/01/11 05:22:01;;;;;;;14.05;9.95;;;;;;;1.59;66.82;100024.34;1791079;79;21027;-35
2021/01/11 05:24:35;;;;;;;13.98;10.08;;;;;;;1.60;66.85;100017.89;1803061;79;21118;-35
2021/01/11 05:27:06;;;;;;;13.65;9.90;;;;;;;1.62;66.73;100021.09;1783211;79;21138;-35
2021/01/11 05:29:35;;;;;;;12.73;9.75;;;;;;;1.60;66.73;100026.70;1793807;79;21362;-35
2021/01/11 05:32:07;;;;;;;14.10;9.68;;;;;;;1.63;66.58;100028.03;1792478;79;21139;-36
2021/01/11 05:34:52;;;;;;;13.58;9.75;;;;;;;1.56;66.60;100028.36;1776691;79;20932;-35
2021/01/11 05:37:39;;;;;;;15.18;9.98;;;;;;;1.48;66.69;100034.33;1783928;79;21166;-36
2021/01/11 05:40:21;;;;;;;16.02;10.25;;;;;;;1.41;66.96;100032.52;1802874;79;21102;-36
2021/01/11 05:42:55;;;;;;;14.80;9.63;;;;;;;1.34;67.24;100037.41;1796742;79;21422;-36
2021/01/11 05:45:30;;;;;;;14.70;10.25;;;;;;;1.34;67.36;100042.75;1804898;79;21107;-36
2021/01/11 05:48:10;;;;;;;13.32;9.65;;;;;;;1.40;67.21;100040.84;1776316;79;20983;-36
2021/01/11 05:50:50;;;;;;;13.65;10.15;;;;;;;1.33;67.21;100049.70;1787297;79;21166;-36
2021/01/11 05:53:21;;;;;;;14.63;10.10;;;;;;;1.24;67.44;100039.64;1776360;80;21194;-36
2021/01/11 05:55:53;;;;;;;;;;;;;;;1.21;67.55;100043.42;1780259;79;22166;-36
2021/01/11 05:58:22;;;;;;;17.25;11.20;;;;;;;1.16;67.77;100050.91;1711165;82;20650;-36
2021/01/11 06:00:50;;;;;;;14.97;10.10;;;;;;;1.15;68.17;100049.34;1715957;82;21165;-36
2021/01/11 06:03:18;;;;;;;18.60;11.30;;;;;;;1.15;68.17;100049.34;1718187;80;21095;-36
2021/01/11 06:05:47;;;;;;;13.68;9.88;;;;;;;1.19;67.86;100050.37;1713739;82;21067;-36
2021/01/11 06:08:15;;;;;;;15.75;10.65;;;;;;;1.19;67.96;100055.70;1733456;82;21387;-36
2021/01/11 06:10:44;;;;;;;17.52;11.18;;;;;;;1.23;67.92;100056.73;1739928;82;21020;-36
2021/01/11 06:13:13;;;;;;;15.15;11.25;;;;;;;1.19;67.87;100055.70;1737141;82;21159;-36
2021/01/11 06:15:42;;;;;;;15.27;10.73;;;;;;;1.11;68.03;100056.32;1713653;83;21166;-36
2021/01/11 06:18:14;;;;;;;15.23;10.88;;;;;;;1.11;68.18;100064.87;1726826;82;21056;-36
2021/01/11 06:20:45;;;;;;;16.12;10.80;;;;;;;1.14;68.23;100066.43;1721403;82;21395;-36
2021/01/11 06:23:28;;;;;;;16.15;11.15;;;;;;;1.16;68.09;100072.27;1715019;82;21762;-36
2021/01/11 06:25:57;;;;;;;16.75;11.43;;;;;;;1.11;68.15;100074.21;1731270;82;21590;-36
2021/01/11 06:28:33;;;;;;;14.63;10.68;;;;;;;1.14;68.24;100073.64;1724628;82;21158;-36
2021/01/11 06:31:13;;;;;;;17.25;11.73;;;;;;;1.23;68.26;100072.77;1734473;82;21147;-36
2021/01/11 06:33:43;;;;;;;15.63;11.25;;;;;;;1.29;68.00;100073.52;1722432;82;21192;-36
2021/01/11 06:36:31;;;;;;;15.88;10.60;;;;;;;1.30;67.99;100071.91;1731351;82;21203;-36
2021/01/11 06:39:10;;;;;;;14.38;10.13;;;;;;;1.37;67.88;100066.22;1733660;82;21079;-36
2021/01/11 06:41:39;;;;;;;15.40;10.45;;;;;;;1.36;67.63;100062.48;1713477;82;21585;-37
2021/01/11 06:44:09;;;;;;;17.90;10.53;;;;;;;1.37;67.62;100064.89;1713539;82;21179;-36
2021/01/11 06:46:45;;;;;;;14.03;10.08;;;;;;;1.38;67.65;100062.48;1719470;82;21214;-36
2021/01/11 06:49:30;;;;;;;14.47;9.50;;;;;;;1.39;67.59;100061.95;1734161;82;21111;-36
2021/01/11 06:52:09;;;;;;;15.58;10.18;;;;;;;1.39;67.49;100058.73;1743065;82;21158;-36
2021/01/11 06:54:41;;;;;;;12.70;8.73;;;;;;;1.38;67.47;100060.34;1725855;81;21194;-36
2021/01/11 06:57:17;;;;;;;12.07;9.30;;;;;;;1.33;67.30;100065.20;1734333;82;21581;-36
2021/01/11 06:59:47;;;;;;;11.90;8.78;;;;;;;1.26;67.45;100062.84;1717857;82;21411;-37
2021/01/11 07:02:25;;;;;;;11.75;9.23;;;;;;;1.27;67.49;100065.78;1723800;81;21208;-37
2021/01/11 07:04:56;;;;;;;9.77;6.90;;;;;;;1.34;67.72;100067.33;1744283;81;21164;-37
2021/01/11 07:07:25;;;;;;;12.50;9.08;;;;;;;1.40;67.68;100066.22;1752368;81;21603;-36
2021/01/11 07:09:57;;;;;;;13.43;9.85;;;;;;;1.46;67.62;100067.20;1761141;81;21156;-37
2021/01/11 07:12:26;;;;;;;11.45;8.83;;;;;;;1.55;67.33;100054.05;1746014;81;21872;-42
2021/01/11 07:15:05;;;;;;;;;;;;;;;1.45;67.06;100033.58;1744603;82;21203;-37
2021/01/11 07:17:42;;;;;;;10.58;7.50;;;;;;;1.56;67.11;100058.30;1742118;82;20257;-36
2021/01/11 07:20:16;;;;;;;11.60;8.43;;;;;;;1.46;67.12;100067.20;1755090;81;21041;-36
2021/01/11 07:22:47;;;;;;;11.57;8.83;;;;;;;1.40;67.01;100066.22;1728557;82;21148;-36
2021/01/11 07:25:24;;;;;;;13.43;9.43;;;;;;;1.39;67.04;100067.28;1741925;82;22158;-36
2021/01/11 07:27:56;;;;;;;12.63;9.40;;;;;;;1.46;67.08;100069.08;1741912;82;21601;-37
2021/01/11 07:30:25;;;;;;;13.00;9.75;;;;;;;1.46;66.94;100066.41;1742077;82;21126;-36
2021/01/11 07:32:54;;;;;;;12.28;9.10;;;;;;;1.41;67.14;100060.57;1742017;82;21114;-36
2021/01/11 07:35:22;;;;;;;11.28;8.28;;;;;;;1.44;67.36;100065.91;1741978;82;21125;-36
2021/01/11 07:37:52;;;;;;;12.55;9.30;;;;;;;1.47;67.37;100066.67;1742152;81;21395;-36
2021/01/11 07:40:22;;;;;;;13.35;8.90;;;;;;;1.52;67.21;100064.75;1722760;83;21070;-37
2021/01/11 07:42:50;;;;;;;13.78;9.45;;;;;;;1.51;67.18;100069.83;1721318;83;21158;-36
2021/01/11 07:45:20;;;;;;;11.43;8.58;;;;;;;1.49;67.34;100076.55;1723301;83;21632;-37
2021/01/11 07:47:52;;;;;;;13.50;8.75;;;;;;;1.56;67.11;100069.78;1742022;81;21142;-37
2021/01/11 07:50:29;;;;;;;13.45;8.90;;;;;;;1.63;66.92;100072.13;1723408;83;22295;-37
2021/01/11 07:52:58;;;;;;;11.93;8.68;;;;;;;1.70;66.60;100072.58;1716797;82;21143;-36
2021/01/11 07:55:29;;;;;;;12.07;8.70;;;;;;;1.70;66.38;100068.03;1708051;83;21173;-37
2021/01/11 07:58:03;;;;;;;11.75;8.45;;;;;;;1.77;66.22;100069.58;1741594;82;21150;-37
2021/01/11 08:00:38;;;;;;;13.03;8.95;;;;;;;1.80;66.21;100073.81;1738267;82;21154;-38
2021/01/11 08:03:06;;;;;;;11.15;7.95;;;;;;;1.82;65.90;100077.00;1733087;82;21368;-37
2021/01/11 08:05:35;;;;;;;10.95;7.80;;;;;;;1.78;65.91;100081.33;1707904;84;21127;-36
2021/01/11 08:08:06;;;;;;;9.63;7.70;;;;;;;1.76;66.10;100083.48;1736701;81;21000;-37
2021/01/11 08:10:36;;;;;;;11.65;8.35;;;;;;;1.80;66.07;100084.50;1765189;81;20965;-36
2021/01/11 08:13:08;;;;;;;11.78;8.68;;;;;;;1.80;66.01;100083.70;1764229;81;21174;-37
2021/01/11 08:15:36;;;;;;;12.13;8.60;;;;;;;1.77;66.03;100082.41;1764285;81;22377;-36
2021/01/11 08:18:07;;;;;;;11.25;8.45;;;;;;;1.80;66.27;100090.38;1764159;80;21190;-37
2021/01/11 08:20:35;;;;;;;12.15;9.05;;;;;;;1.85;66.23;100084.45;1764288;81;21127;-37
2021/01/11 08:23:10;;;;;;;11.55;9.03;;;;;;;1.91;66.17;100092.67;1764799;80;20973;-37
2021/01/11 08:25:38;;;;;;;12.88;8.60;;;;;;;1.92;66.23;100096.95;1765064;81;21174;-37
2021/01/11 08:28:09;;;;;;;13.05;8.88;;;;;;;1.94;66.00;100097.45;1764990;81;21187;-37
2021/01/11 08:30:37;;;;;;;12.15;8.70;;;;;;;1.93;66.06;100104.44;1765079;81;20996;-38
2021/01/11 08:33:07;;;;;;;12.95;8.90;;;;;;;1.89;66.08;100101.51;1764996;80;21452;-37
2021/01/11 08:35:35;;;;;;;13.17;9.40;;;;;;;1.90;66.10;100102.31;1765202;81;21031;-37
2021/01/11 08:38:05;;;;;;;12.47;9.28;;;;;;;1.94;66.26;100096.65;1765060;81;21122;-37
2021/01/11 08:40:33;;;;;;;13.43;10.03;;;;;;;2.00;66.16;100103.00;1765252;81;21262;-37
2021/01/11 08:43:11;;;;;;;15.00;10.08;;;;;;;1.95;66.16;100104.94;1764903;80;21606;-37
2021/01/11 08:45:41;;;;;;;13.95;10.03;;;;;;;1.96;66.26;100107.87;1764911;81;21182;-37
2021/01/11 08:48:15;;;;;;;14.13;10.45;;;;;;;1.91;66.20;100110.05;1764961;81;21040;-37
2021/01/11 08:50:56;;;;;;;15.80;10.08;;;;;;;1.86;66.57;100110.64;1764987;81;21126;-37
2021/01/11 08:53:36;;;;;;;14.03;10.00;;;;;;;1.89;66.74;100112.20;1765059;81;22054;-36
2021/01/11 08:56:10;;;;;;;13.20;9.28;;;;;;;1.93;66.68;100113.80;1745902;81;21183;-37
2021/01/11 08:58:48;;;;;;;12.47;9.25;;;;;;;1.94;66.48;100115.36;1763233;81;21150;-37
2021/01/11 09:01:18;;;;;;;14.25;9.30;;;;;;;1.93;66.43;100105.77;1764955;81;21574;-37
2021/01/11 09:03:55;;;;;;;12.53;9.18;;;;;;;1.89;66.51;100101.51;1729289;82;21146;-37
2021/01/11 09:06:45;;;;;;;12.40;9.45;;;;;;;1.85;66.51;100107.17;1754205;81;22262;-37
2021/01/11 09:09:16;;;;;;;;;;;;;;;1.79;66.52;100098.97;1737329;82;21538;-37
2021/01/11 09:11:47;;;;;;;14.45;10.38;;;;;;;1.71;66.74;100106.25;1739858;81;20289;-36
2021/01/11 09:14:17;;;;;;;15.28;11.40;;;;;;;1.60;67.14;100107.41;1764974;81;21114;-36
2021/01/11 09:16:47;;;;;;;15.63;11.70;;;;;;;1.56;67.32;100103.72;1765172;81;21158;-37
2021/01/11 09:19:19;;;;;;;16.85;11.48;;;;;;;1.54;67.52;100099.21;1765049;81;21188;-36
2021/01/11 09:22:17;;;;;;;16.90;11.48;;;;;;;1.52;67.63;100102.69;1764847;81;21023;-37
2021/01/11 09:24:46;;;;;;;19.75;13.38;;;;;;;1.48;67.93;100097.13;1759925;81;21082;-38
2021/01/11 09:27:17;;;;;;;15.98;12.18;;;;;;;1.52;68.15;100098.69;1764874;81;21145;-37
2021/01/11 09:29:45;;;;;;;18.65;13.50;;;;;;;1.55;68.12;100096.23;1765382;81;21118;-36
2021/01/11 09:32:13;;;;;;;19.42;13.00;;;;;;;1.59;68.10;100093.82;1764887;81;23648;-37
2021/01/11 09:34:41;;;;;;;16.30;11.93;;;;;;;1.62;68.21;100098.05;1764958;81;20999;-37
2021/01/11 09:37:13;;;;;;;15.60;10.30;;;;;;;1.67;67.49;100087.85;1764923;81;21145;-37
2021/01/11 09:39:41;;;;;;;13.58;10.43;;;;;;;1.61;67.62;100082.30;1764976;81;21119;-37
2021/01/11 09:42:13;;;;;;;14.33;10.25;;;;;;;1.53;67.73;100086.92;1764848;81;21043;-37
2021/01/11 09:44:43;;;;;;;14.98;10.00;;;;;;;1.54;67.58;100079.17;1764954;81;21569;-37
2021/01/11 09:47:11;;;;;;;13.43;9.48;;;;;;;1.52;67.46;100083.98;1765015;80;21173;-37
2021/01/11 09:49:43;;;;;;;12.63;9.13;;;;;;;1.49;67.43;100081.36;1765028;81;20997;-36
2021/01/11 09:52:12;;;;;;;13.98;9.68;;;;;;;1.46;67.36;100077.09;1765174;81;21008;-37
2021/01/11 09:54:41;;;;;;;12.47;8.53;;;;;;;1.44;67.52;100080.06;1765083;81;21111;-36
2021/01/11 09:57:12;;;;;;;13.62;10.00;;;;;;;1.44;67.65;100086.74;1764941;81;21255;-37
2021/01/11 09:59:41;;;;;;;13.60;9.90;;;;;;;1.41;67.79;100083.28;1765087;81;21023;-37
2021/01/11 10:02:10;;;;;;;15.68;10.88;;;;;;;1.35;68.00;100080.95;1757617;81;21618;-37
2021/01/11 10:04:49;;;;;;;15.55;10.75;;;;;;;1.39;68.26;100078.77;1809155;78;22817;-36
2021/01/11 10:07:18;;;;;;;17.37;11.57;;;;;;;1.35;68.32;100074.28;1784253;80;21604;-36
2021/01/11 10:09:46;;;;;;;14.43;10.45;;;;;;;1.30;68.57;100065.77;1749004;82;21365;-36
2021/01/11 10:12:14;;;;;;;17.10;11.10;;;;;;;1.34;68.67;100064.13;1742856;81;21069;-36
2021/01/11 10:14:43;;;;;;;13.60;9.95;;;;;;;1.33;68.55;100062.52;1751523;81;20993;-35
2021/01/11 10:17:12;;;;;;;14.43;10.48;;;;;;;1.37;68.48;100062.22;1751653;81;21075;-36
2021/01/11 10:19:41;;;;;;;12.30;9.20;;;;;;;1.41;68.46;100069.92;1751634;81;21566;-36
2021/01/11 10:22:10;;;;;;;14.28;10.72;;;;;;;1.46;68.48;100067.20;1733635;81;21429;-35
2021/01/11 10:24:39;;;;;;;15.10;9.93;;;;;;;1.45;68.55;100071.52;1728023;82;21071;-36
2021/01/11 10:27:08;;;;;;;15.45;10.15;;;;;;;1.44;68.42;100063.23;1743276;81;21009;-35
2021/01/11 10:29:37;;;;;;;16.75;11.95;;;;;;;1.38;68.63;100058.47;1764297;81;21641;-35
2021/01/11 10:32:07;;;;;;;15.58;10.88;;;;;;;1.32;68.74;100054.25;1764034;81;21122;-36
2021/01/11 10:34:35;;;;;;;15.38;10.45;;;;;;;1.34;68.76;100051.30;1764220;81;21317;-36
2021/01/11 10:37:07;;;;;;;17.25;10.35;;;;;;;1.35;68.76;100051.03;1764135;81;21161;-36
2021/01/11 10:39:35;;;;;;;15.80;11.38;;;;;;;1.42;68.73;100053.36;1764163;81;21106;-36
2021/01/11 10:42:03;;;;;;;15.83;10.48;;;;;;;1.44;68.56;100052.02;1763867;81;21166;-36
2021/01/11 10:44:32;;;;;;;15.23;10.48;;;;;;;1.47;68.58;100045.30;1747447;81;21143;-35
2021/01/11 10:47:00;;;;;;;14.23;9.83;;;;;;;1.50;68.59;100044.75;1733772;82;21405;-36
2021/01/11 10:49:29;;;;;;;14.30;10.18;;;;;;;1.56;68.61;100044.93;1733649;82;21167;-36
2021/01/11 10:51:58;;;;;;;19.37;11.43;;;;;;;1.56;68.20;100044.39;1733995;81;21121;-36
2021/01/11 10:54:27;;;;;;;14.83;10.60;;;;;;;1.57;68.15;100038.52;1726346;83;21163;-36
2021/01/11 10:56:56;;;;;;;16.27;10.83;;;;;;;1.63;68.32;100040.06;1731876;80;21160;-36
2021/01/11 10:59:25;;;;;;;18.50;12.30;;;;;;;1.69;67.95;100038.37;1757096;80;21214;-36
2021/01/11 11:01:54;;;;;;;17.20;11.48;;;;;;;1.72;67.69;100038.36;1775118;80;21031;-35
2021/01/11 11:04:23;;;;;;;18.87;12.37;;;;;;;1.73;67.57;100034.61;1777220;80;21613;-36
2021/01/11 11:07:00;;;;;;;19.57;12.13;;;;;;;1.72;67.50;100037.02;1774609;80;21111;-36
2021/01/11 11:09:28;;;;;;;22.87;14.10;;;;;;;1.68;67.68;100038.67;1747666;80;21143;-35
2021/01/11 11:11:57;;;;;;;20.90;13.22;;;;;;;1.69;67.74;100038.37;1747640;80;21213;-35
2021/01/11 11:14:26;;;;;;;20.23;13.68;;;;;;;1.68;67.63;100040.01;1748559;80;21194;-36
2021/01/11 11:16:55;;;;;;;20.77;12.90;;;;;;;1.69;67.76;100036.26;1770924;80;21218;-36
2021/01/11 11:19:24;;;;;;;22.13;13.62;;;;;;;1.77;67.75;100038.30;1757449;80;22215;-35
2021/01/11 11:21:54;;;;;;;25.35;14.07;;;;;;;1.82;67.60;100034.23;1727434;81;21109;-35
2021/01/11 11:24:22;;;;;;;17.48;12.20;;;;;;;1.82;67.48;100031.56;1727317;83;21365;-36
2021/01/11 11:26:52;;;;;;;22.70;13.58;;;;;;;1.79;67.48;100024.13;1727700;81;21166;-36
2021/01/11 11:29:20;;;;;;;18.57;12.37;;;;;;;1.80;67.54;100024.36;1718062;82;21159;-36
2021/01/11 11:31:52;;;;;;;21.95;13.80;;;;;;;1.75;67.54;100023.07;1815596;79;21043;-36
2021/01/11 11:34:20;;;;;;;21.93;13.58;;;;;;;1.74;67.66;100029.52;1815692;79;21175;-36
2021/01/11 11:36:49;;;;;;;20.55;13.50;;;;;;;1.72;67.70;100029.00;1815582;79;21199;-36
2021/01/11 11:39:18;;;;;;;18.62;13.13;;;;;;;1.66;68.03;100029.59;1808396;79;21039;-36
2021/01/11 11:41:46;;;;;;;21.45;14.03;;;;;;;1.65;68.08;100030.66;1801756;79;21033;-36
2021/01/11 11:44:14;;;;;;;20.12;13.30;;;;;;;1.63;68.15;100032.05;1797053;79;21138;-36